Renato Soares

Scout - Atlético Mineiro
3 Dec 2028
Sunday
Process

Personality

Adaptability (10) Ambition (1) Controversy (15) Loyalty (7) Pressure (11) Professionalism (5) Sportsmanship (10) Temperament (11)

Profile

Coaching Style Democratic
License Continental B
Determination 6
Man Management 13
Motivating 8
Discipline 14
Job Satisfaction
100%
Fatigue
0%
Role Scout
Wage 70.8K p/w
Contract 14.03.2030

Performance

Behaviour Good
Training Effectiveness
50%
Player Development
40%
Injury Prevention
35%
Tactical Implementation
50%

Recent Events

Assessed a player now
Attended a recruitment meeting now
Attended a recruitment meeting now
Assessed a player now
Assessed a player 7d ago
Assessed a player 7d ago
Assessed a player 7d ago
Assessed a player 7d ago

Currently Monitoring

224
Player Club Status Ability Confidence Watched Last Observed Latest Vote
Jeremías Merlo Gimnasia La Plata Active 127 / 119 40% 4 29.11.2028 -
Babis Kostoulas Oxford United Active 164 / 148 40% 2 29.11.2028 -
Julio Enciso Aston Villa Active 161 / 147 40% 1 29.11.2028 -
Theo Corbeanu Toronto FC Active 134 / 131 40% 1 29.11.2028 -
Samu Aghehowa Udinese Active 154 / 170 40% 3 28.11.2028 -
Toni Fruk Talleres Active 131 / 131 40% 3 28.11.2028 -
Yousef Salech Cardiff City Active 133 / 130 40% 3 27.11.2028 -
Gabriel Martinelli Arsenal Active 156 / 172 40% 1 27.11.2028 -
Iñaki Larthirigoyen San Telmo Active 116 / 126 40% 2 26.11.2028 -
Tobías Leiva Estudiantes Active 122 / 109 40% 1 26.11.2028 -
Juan Cruz de los Santos Nacional Active 124 / 130 40% 1 24.11.2028 -
Matías Arezo Penarol Active 129 / 129 40% 1 24.11.2028 -
Daniel Barrea Godoy Cruz Active 123 / 129 40% 4 23.11.2028 -
Luciano Cosentino Wanderers Active 124 / 125 40% 2 22.11.2028 -
Dango Ouattara Middlesbrough Active 154 / 150 40% 1 22.11.2028 -
Endrick Boca Juniors Active 168 / 164 40% 7 21.11.2028 -
Wesley Al-Nassr Active 122 / 141 40% 1 21.11.2028 -
Ignacio Maestro Puch Independiente Active 122 / 128 40% 3 20.11.2028 -
John Kennedy Corinthians Active 133 / 135 40% 3 20.11.2028 -
Lisandro Piñero Banfield Active 133 / 128 40% 3 20.11.2028 -
Leandro Mamut Gimnasia La Plata Active 124 / 125 40% 1 20.11.2028 -
Ignacio Perruzzi San Lorenzo Active 130 / 139 40% 1 17.11.2028 -
Jonathan De Irastorza Independiente Active 128 / 124 40% 1 17.11.2028 -
Franco Minerva Platense Active 122 / 123 40% 1 15.11.2028 -
Thiago Brentford Active 155 / 155 40% 2 14.11.2028 -
Alan Velasco Fortaleza Active 129 / 135 40% 1 14.11.2028 -
Geovany Quenda Watford Active 151 / 160 40% 2 12.11.2028 -
Facundo Farías Estudiantes Active 138 / 135 40% 1 09.11.2028 -
Nicolas Jackson Aston Villa Active 153 / 150 40% 2 08.11.2028 -
Souleymane Faye Sporting CP Active 151 / 134 40% 2 08.11.2028 -
Tomás Porra Barracas Central Active 118 / 125 40% 1 07.11.2028 -
Matteo Cancellieri Flamengo Active 158 / 142 40% 2 05.11.2028 -
Gustavo Neves Bragantino Active 124 / 136 40% 4 03.11.2028 -
Nicolás Barros Schelotto Gimnasia La Plata Active 112 / 117 40% 3 31.10.2028 -
Jalen Blesa Oliveirense Active 116 / 122 40% 1 31.10.2028 -
Brennan Johnson Southampton Active 143 / 146 40% 1 28.10.2028 -
Juan Velázquez Belgrano Active 117 / 129 40% 1 27.10.2028 -
Álvaro Montoro Botafogo Active 131 / 135 40% 3 25.10.2028 -
Luis Ángel Díaz Independiente Rivadavia Active 129 / 131 40% 1 25.10.2028 -
Luis Vázquez Mamelodi Sundowns Active 140 / 128 40% 1 25.10.2028 -
Bruno Barticciotto Talleres Active 132 / 138 40% 1 22.10.2028 -
Lucas Villalba Botafogo Active 134 / 137 40% 1 22.10.2028 -
Breno Bidon Corinthians Active 135 / 127 40% 1 20.10.2028 -
Facundo Gulli San Lorenzo Active 117 / 121 40% 2 16.10.2028 -
Matthew Grimaldi Melbourne Victory Active 110 / 114 40% 1 16.10.2028 -
Lucca São Paulo Active 113 / 112 40% 2 15.10.2028 -
Luka Tsulukidze Dinamo Batumi Active 120 / 114 40% 1 15.10.2028 -
Alex Luna Instituto Active 133 / 134 40% 1 10.10.2028 -
Agustín Giay Palmeiras Active 141 / 141 40% 4 09.10.2028 -
Matías Rosales Sarmiento Active 109 / 115 40% 1 09.10.2028 -
Alex Badolato Newcastle Jets Active 105 / 113 40% 1 08.10.2028 -
Max Johnston Derby County Active 131 / 148 40% 1 26.06.2028 -
Chemsdine Talbi Sunderland Active 161 / 143 40% 1 26.06.2028 -
Mohamed-Ali Cho Hull City Active 137 / 136 40% 1 21.06.2028 -
Tammy Abraham Aston Villa Active 160 / 150 40% 2 01.06.2028 -
Charles De Ketelaere Tottenham Active 176 / 163 40% 1 01.06.2028 -
Timothy Castagne Stoke City Active 144 / 138 40% 3 28.05.2028 -
James Justin Leeds United Active 152 / 131 40% 1 28.05.2028 -
Jan Paul van Hecke Tottenham Active 158 / 153 40% 3 27.05.2028 -
André Wolverhampton Active 138 / 151 40% 3 25.05.2028 -
Manu Koné AS Roma Active 178 / 176 40% 1 25.05.2028 -
Alex Scott Bournemouth Active 142 / 162 40% 4 24.05.2028 -
Jacques Ekomié Wrexham Active 128 / 123 40% 1 24.05.2028 -
Shea Charles Southampton Active 157 / 144 40% 2 23.05.2028 -
Jayden Bogle Leeds United Active 156 / 156 40% 1 23.05.2028 -
Angeliño AS Roma Active 155 / 143 40% 5 22.05.2028 -
Yasin Ayari Middlesbrough Active 153 / 153 40% 1 22.05.2028 -
Pedro Porro Tottenham Active 162 / 149 40% 3 21.05.2028 -
Neco Williams Wrexham Active 139 / 156 40% 2 18.05.2028 -
Joe Rodon Blackburn Rovers Active 137 / 139 40% 1 18.05.2028 -
Max Bird Birmingham Active 131 / 138 40% 5 11.05.2028 -
Welington Southampton Active 131 / 148 40% 1 11.05.2028 -
Óscar Mingueza Crystal Palace Active 168 / 148 40% 2 05.05.2028 -
Vitaly Janelt Derby County Active 163 / 140 40% 1 05.05.2028 -
Matteo Ruggeri Middlesbrough Active 143 / 148 40% 3 04.05.2028 -
Sven Botman Newcastle United Active 170 / 155 40% 1 30.04.2028 -
Maximiliano Araújo West Ham United Active 149 / 143 40% 3 23.04.2028 -
Xaver Schlager Nottingham Forest Active 156 / 143 40% 1 22.04.2028 -
Tino Livramento Newcastle United Active 153 / 175 40% 2 20.04.2028 -
Bobby Thomas Grimsby Town Active 135 / 151 40% 1 18.04.2028 -
Matheus Bidu Corinthians Active 135 / 118 40% 3 13.04.2028 -
Adam Wharton Crystal Palace Active 168 / 161 40% 1 12.04.2028 -
Alexandro Bernabei Internacional Active 134 / 135 40% 3 11.04.2028 -
Boubacar Kamara Aston Villa Active 157 / 178 40% 1 10.04.2028 -
Vitinho Botafogo Active 135 / 145 40% 3 08.04.2028 -
Renato Sanches Leiria Active 123 / 122 40% 1 08.04.2028 -
Luciano Juba Bahia Active 141 / 123 40% 3 04.04.2028 -
Enzo Díaz Sport Recife Active 124 / 123 40% 3 02.04.2028 -
Caio Alexandre Bahia Active 126 / 132 40% 2 22.03.2028 -
Nordi Mukiele Sunderland Active 163 / 143 40% 3 20.03.2028 -
Kenny Tete Fulham Active 153 / 158 40% 3 19.03.2028 -
Bruno Gomes Internacional Active 135 / 141 40% 1 15.03.2028 -
Souffian El Karouani Al-Qadisiyah Active 137 / 145 40% 2 10.03.2028 -
Lucas Paquetá Flamengo Active 139 / 132 40% 1 09.03.2028 -
Amadou Onana Aston Villa Active 148 / 165 40% 1 03.03.2028 -
Moisés Caicedo Chelsea Active 188 / 181 40% 2 28.02.2028 -
Lucas Piton Vasco da Gama Active 148 / 129 40% 2 27.02.2028 -
Paulo Henrique Vasco da Gama Active 140 / 123 40% 1 18.02.2028 -
Matheus Pereira Fortaleza Active 125 / 129 40% 1 18.02.2028 -
Damián Bobadilla Sport Recife Active 132 / 130 40% 1 08.02.2028 -
Sandro Tonali Tottenham Active 172 / 181 40% 1 08.02.2028 -
Marcos Antonio Sport Recife Active 133 / 149 40% 1 10.01.2028 -
Samuel Lino Flamengo Active 133 / 144 58% 1 27.12.2027 -
Lucca Prior Fortaleza Active 99 / 102 58% 1 20.12.2027 -
Rodrigo Garro Corinthians Active 129 / 133 58% 1 28.06.2027 -
Aidan Morris Middlesbrough Active 124 / 140 40% 1 21.06.2027 -
Lorenzo Colombo Genoa Active 143 / 131 40% 3 29.05.2027 -
Heorhii Yermakov Metalist Active 135 / 123 40% 1 29.05.2027 -
Elia Caprile Cagliari Active 145 / 148 40% 2 23.05.2027 -
Giacomo Raspadori Atalanta Active 135 / 153 40% 3 23.05.2027 -
Ivor Pandur Hull City Active 137 / 127 40% 1 23.05.2027 -
Tyrese Campbell Sheffield United Active 141 / 126 40% 3 21.05.2027 -
Sławomir Abramowicz Jagiellonia Active 141 / 134 40% 3 21.05.2027 -
Mads Hermansen West Ham United Active 136 / 154 40% 2 21.05.2027 -
Jørgen Strand Larsen Brighton Active 143 / 156 40% 1 21.05.2027 -
Dominic Solanke Tottenham Active 137 / 153 40% 3 20.05.2027 -
Fábio Carvalho Brentford Active 139 / 153 40% 1 20.05.2027 -
Taty Castellanos West Ham United Active 135 / 153 40% 1 18.05.2027 -
Sam Greenwood Bristol City Active 130 / 132 40% 1 15.05.2027 -
Georginio Rutter Brighton Active 160 / 145 40% 1 15.05.2027 -
Emanuel Emegha Chelsea Active 138 / 152 40% 2 13.05.2027 -
Jarrod Bowen West Ham United Active 148 / 148 40% 1 12.05.2027 -
Kevin Schade Chelsea Active 154 / 163 40% 1 10.05.2027 -
Joseph Leclercq Tottenham Active 157 / 158 40% 1 06.05.2027 -
Anthony Patterson Wrexham Active 136 / 119 40% 5 03.05.2027 -
Robin Roefs Sunderland Active 152 / 141 40% 3 01.05.2027 -
Radek Vítek Middlesbrough Active 149 / 145 40% 3 01.05.2027 -
Gianluca Scamacca Atalanta Active 143 / 150 40% 5 28.04.2027 -
Deniz Ertaş Konyaspor Active 130 / 117 40% 1 24.04.2027 -
Víctor Guzmán Sporting CP Active 93 / 94 40% 1 22.04.2027 -
Ismaïla Sarr Crystal Palace Active 154 / 161 40% 1 20.04.2027 -
Rodrigo Muniz Fulham Active 137 / 138 40% 2 18.04.2027 -
Wilson Isidor Sunderland Active 144 / 142 40% 1 18.04.2027 -
Andreas Jungdal Westerlo Active 123 / 117 40% 1 09.04.2027 -
Bertuğ Yıldırım Basaksehir Active 135 / 129 40% 1 09.04.2027 -
Oh Hyeon-Gyu Besiktas Active 114 / 126 40% 1 09.04.2027 -
Josh Keeley Luton Town Active 130 / 115 40% 2 06.04.2027 -
Mauro Silveira Junior Active 126 / 123 40% 1 05.04.2027 -
Nicolò Tresoldi Club Brugge Active 145 / 131 40% 2 04.04.2027 -
Lucas Lund Viborg Active 115 / 120 40% 1 04.04.2027 -
Hwang Hee-Chan Wolverhampton Active 148 / 133 40% 1 03.04.2027 -
Rocco Vata Watford Active 117 / 118 40% 1 01.04.2027 -
Ibrahim Saeed Al Shabab Active 125 / 126 40% 2 31.03.2027 -
Justo Giani Umraniyespor Active 131 / 113 40% 3 30.03.2027 -
Zion Suzuki Aston Villa Active 141 / 133 40% 3 27.03.2027 -
Raúl Rangel Braga Active 151 / 124 40% 1 26.03.2027 -
Ricardo Horta Braga Active 143 / 152 40% 8 23.03.2027 -
Dodi Lukébakio Benfica Active 142 / 143 40% 3 21.03.2027 -
Mateo Pellegrino Fiorentina Active 146 / 141 40% 1 20.03.2027 -
Brian Brobbey Sunderland Active 129 / 140 40% 3 18.03.2027 -
Fran Vieites Walsall Active 134 / 132 40% 2 17.03.2027 -
Yanis Begraoui Estoril Praia Active 135 / 137 40% 8 14.03.2027 -
Pau Víctor Braga Active 153 / 145 40% 4 12.03.2027 -
Ollie Watkins Al-Hilal Active 148 / 139 40% 3 10.03.2027 -
Gabriel Brazão Santos Active 146 / 145 40% 2 07.03.2027 -
Oli McBurnie Hull City Active 149 / 145 40% 2 26.02.2027 -
Alfonso Trezza Arouca Active 138 / 116 40% 3 25.02.2027 -
Ivo Mammini Beitar Jerusalem Active 126 / 126 40% 1 25.02.2027 -
José Manuel López Palmeiras Active 143 / 127 40% 3 22.02.2027 -
Bilal Bayazıt Kayserispor Active 136 / 138 40% 2 21.02.2027 -
Cezary Miszta Rio Ave Active 132 / 126 40% 1 18.02.2027 -
Lazar Carević Famalicao Active 144 / 134 40% 1 11.02.2027 -
Juan Diego Castillo Vitoria Guimaraes Active 108 / 106 40% 1 08.02.2027 -
Antonio Gomis Vizela Active 105 / 114 40% 1 07.02.2027 -
Tamble Monteiro Rio Ave Active 114 / 117 40% 4 02.02.2027 -
Miguel Falé Pacos de Ferreira Active 102 / 102 40% 1 02.02.2027 -
Lucas Duarte Felgueiras Active 118 / 113 40% 1 01.02.2027 -
Wesley Saïd RC Lens Active 147 / 124 40% 1 01.02.2027 -
Guilherme Neiva AVS Active 94 / 109 40% 1 30.01.2027 -
Memphis Depay Corinthians Active 141 / 138 40% 1 20.01.2027 Needs More Info
Henrique Araújo Casa Pia Active 117 / 122 40% 3 18.01.2027 -
Dwight McNeil Crystal Palace Active 137 / 125 40% 2 14.01.2027 -
Nicolò Zaniolo Udinese Active 129 / 133 40% 3 12.01.2027 -
Sorriso Famalicao Active 126 / 136 40% 5 10.01.2027 -
Pedro Flamengo Active 138 / 144 40% 3 08.01.2027 -
Yassin Fortuné Vizela Active 102 / 105 40% 2 07.01.2027 -
Figueiredo Alverca Active 121 / 125 40% 2 30.12.2026 -
Francisco Moura Porto Active 152 / 138 40% 2 28.12.2026 -
Víctor Gómez Braga Active 149 / 137 40% 3 28.12.2026 -
Edu Expósito Espanyol Active 147 / 134 40% 1 26.12.2026 -
Iván Fresneda Sporting CP Active 147 / 137 40% 2 23.12.2026 -
Eduardo Quaresma Sporting CP Active 130 / 130 40% 2 23.12.2026 -
Ilyas Ansah Hull City Active 131 / 147 40% 1 06.12.2026 -
Enzo Barrenechea Benfica Active 155 / 161 40% 4 26.11.2026 -
Ayase Ueda LOSC Lille Active 143 / 135 40% 1 23.11.2026 -
Leo Ceara Kashima Antlers Active 141 / 131 40% 1 22.11.2026 -
Azor Matusiwa Ipswich Town Active 135 / 131 40% 1 20.11.2026 -
Gustavo Silva Vitoria Guimaraes Active 121 / 130 40% 2 13.11.2026 -
Andrea Pinamonti Lazio Active 151 / 152 40% 3 09.11.2026 -
Eddie Nketiah Crystal Palace Active 124 / 123 40% 2 09.11.2026 -
Martín Tejón Maritimo Active 129 / 116 40% 1 03.11.2026 -
Vinícius Lopes Santa Clara Active 113 / 106 40% 1 01.11.2026 -
Leandro Barreiro Benfica Active 143 / 132 40% 2 29.10.2026 -
Bright Arrey-Mbi Braga Active 127 / 130 40% 3 27.10.2026 -
Guilherme Arana Fluminense Active 124 / 141 40% 1 23.10.2026 -
Hidemasa Morita Hull City Active 134 / 154 40% 1 23.10.2026 -
Dylan Nandín Arouca Active 119 / 103 40% 1 21.10.2026 -
Esteban Lepaul Stade Rennais Active 123 / 142 40% 3 20.10.2026 -
Vitor Carvalho Braga Active 148 / 129 40% 1 17.10.2026 -
Leon Goretzka Aston Villa Active 165 / 154 40% 1 17.10.2026 -
Mathys Tel Tottenham Active 145 / 144 40% 1 15.10.2026 -
Nehuén Pérez Porto Active 125 / 129 40% 1 12.10.2026 -
Zeno Debast Sporting CP Active 145 / 155 40% 1 12.10.2026 -
Alberto Costa Porto Active 145 / 143 40% 3 03.10.2026 -
Kasper Dolberg Ajax Active 122 / 123 40% 1 03.10.2026 -
Lisandro Martínez Ajax Active 153 / 152 40% 1 02.10.2026 -
Donyell Malen AS Roma Active 157 / 151 40% 1 29.09.2026 -
Alexey Miranchuk Atlanta United FC Active 141 / 137 40% 1 29.09.2026 -
Igor Paixão Olympique de Marseille Active 157 / 148 40% 2 24.09.2026 -
Petar Musa FC Dallas Active 156 / 130 40% 1 24.09.2026 -
Erik Lira Cruz Azul Active 142 / 145 40% 1 23.09.2026 -
Roberto Fernández Braga Active 126 / 131 40% 2 21.09.2026 -
Steven Bergwijn Al-Ittihad Active 132 / 152 40% 1 20.09.2026 -
Alexis Vega Feyenoord Active 131 / 142 40% 1 20.09.2026 -
Jan Bednarek Porto Active 127 / 134 40% 2 15.09.2026 -
Danilo Botafogo Active 141 / 133 40% 1 13.09.2026 -
Sikou Niakaté Braga Active 124 / 139 40% 2 10.09.2026 -
Joshua Zirkzee Manchester United Active 132 / 132 40% 1 31.08.2026 -
Guus Til PSV Active 138 / 146 40% 1 27.08.2026 -
Noah Okafor Leeds United Active 138 / 150 40% 1 23.08.2026 -
Tomás Araújo Benfica Active 128 / 156 40% 2 13.08.2026 -
Marc Cucurella Real Madrid Active 165 / 140 40% 1 09.08.2026 -
Jonathan Dubasin Osasuna Active 152 / 154 40% 1 08.08.2026 -
Leo Román Deportivo La Coruña Active 127 / 134 40% 1 03.08.2026 -